Kaio Maru — JD2067 — position and weather

sailwx.info

Track history (hours):
 
Tides and Currents Weather Stations Pressure Air Temp Water Temp Dewpoint Dewpoint Depression Visibility Wind Speed Wind Dir Waves Ship Positions

Kaio Maru

Last reported at 2017-Apr-24 17:00 UTC. Time now 2017-Apr-24 17:22 UTC.
Position N 35°38' E 139°46'.

Length 36 m; draft 3.2 m.

Type: Tug. MMSI: 431001455.

Date/timePositionNaut miles runAvg speedWind from/ knotsBaromVisibWave heightAir tempDewpointWater temp
2017-Apr-24 17:00N 35°38' E 139°46'0 0.0
2017-Apr-24 16:30N 35°38' E 139°46'0 0.0
2017-Apr-24 16:00N 35°38' E 139°46'0 0.0
2017-Apr-24 15:30N 35°38' E 139°46'0 0.0
2017-Apr-24 15:00N 35°38' E 139°46'0 0.0
2017-Apr-24 14:30N 35°38' E 139°46'0 0.0
2017-Apr-24 13:30N 35°38' E 139°46'0 0.0
2017-Apr-24 13:00N 35°38' E 139°46'0 0.0
2017-Apr-24 12:30N 35°38' E 139°46'0 0.0
2017-Apr-24 12:00N 35°38' E 139°46'0 0.0
2017-Apr-24 11:30N 35°38' E 139°46'0 0.0
2017-Apr-24 11:00N 35°38' E 139°46'0 0.0
2017-Apr-24 10:30N 35°38' E 139°46'0 0.0
2017-Apr-24 10:00N 35°38' E 139°46'0 0.0
2017-Apr-24 09:30N 35°38' E 139°46'0 0.0
2017-Apr-24 09:00N 35°38' E 139°46'0 0.0
2017-Apr-24 08:30N 35°38' E 139°46'0 0.0
2017-Apr-24 08:01N 35°38' E 139°46'0 0.0
2017-Apr-24 07:30N 35°38' E 139°46'0 0.0
2017-Apr-24 07:00N 35°38' E 139°46'0 0.0
2017-Apr-24 06:30N 35°38' E 139°46'0 0.0
2017-Apr-24 06:00N 35°38' E 139°46'0 0.0
2017-Apr-24 05:30N 35°38' E 139°46'0 0.0
2017-Apr-24 05:00N 35°38' E 139°46'0 0.0
2017-Apr-24 04:30N 35°38' E 139°46'0 0.0
2017-Apr-24 04:00N 35°38' E 139°46'0 0.0
2017-Apr-24 03:30N 35°38' E 139°46'0 0.0
2017-Apr-24 03:00N 35°38' E 139°46'1 1.2
2017-Apr-24 02:30N 35°38' E 139°46'2 3.1
2017-Apr-24 02:00N 35°36' E 139°46'2 3.4
2017-Apr-24 01:31N 35°35' E 139°48'1 1.9
2017-Apr-24 01:00N 35°36' E 139°47'3 5.8
2017-Apr-24 00:30N 35°38' E 139°46'0 0.0
2017-Apr-24 00:00N 35°38' E 139°46'0 0.0
2017-Apr-23 23:30N 35°38' E 139°46'0 0.0
2017-Apr-23 23:00N 35°38' E 139°46'0 0.0
2017-Apr-23 22:30N 35°38' E 139°46'0 0.0
2017-Apr-23 22:00N 35°38' E 139°46'0 0.0
2017-Apr-23 21:30N 35°38' E 139°46'0 0.0
2017-Apr-23 21:00N 35°38' E 139°46'0 0.0
2017-Apr-23 20:30N 35°38' E 139°46'0 0.0
2017-Apr-23 20:00N 35°38' E 139°46'0 0.0
2017-Apr-23 19:30N 35°38' E 139°46'0 0.0
2017-Apr-23 19:00N 35°38' E 139°46'0 0.0
2017-Apr-23 18:30N 35°38' E 139°46'0 0.0
2017-Apr-23 18:00N 35°38' E 139°46'0 0.0
2017-Apr-23 17:30N 35°38' E 139°46'0 0.0
2017-Apr-23 17:00N 35°38' E 139°46'0 0.0
2017-Apr-23 16:30N 35°38' E 139°46'0 0.0
2017-Apr-23 16:00N 35°38' E 139°46'0 0.0
2017-Apr-23 15:30N 35°38' E 139°46'0 0.0
2017-Apr-23 15:00N 35°38' E 139°46'0 0.0
2017-Apr-23 14:00N 35°38' E 139°46'0 0.0
2017-Apr-23 13:30N 35°38' E 139°46'0 0.0
2017-Apr-23 13:00N 35°38' E 139°46'0 0.0
2017-Apr-23 12:30N 35°38' E 139°46'0 0.0
2017-Apr-23 12:00N 35°38' E 139°46'0 0.0
2017-Apr-23 11:30N 35°38' E 139°46'0 0.0
2017-Apr-23 11:00N 35°38' E 139°46'0 0.0
2017-Apr-23 10:30N 35°38' E 139°46'0 0.0
2017-Apr-23 10:00N 35°38' E 139°46'2 4.1
2017-Apr-23 09:30N 35°36' E 139°47'1 1.1
2017-Apr-23 09:00N 35°36' E 139°47'2 3.5
2017-Apr-23 08:30N 35°35' E 139°48'4 8.6
2017-Apr-23 08:00N 35°38' E 139°46'0 0.0
2017-Apr-23 07:30N 35°38' E 139°46'0 0.0
2017-Apr-23 07:00N 35°38' E 139°46'0 0.0
2017-Apr-23 06:30N 35°38' E 139°46'0 0.0
2017-Apr-23 06:00N 35°38' E 139°46'0 0.0
2017-Apr-23 05:30N 35°38' E 139°46'0 0.0
2017-Apr-23 05:00N 35°38' E 139°46'0 0.0
2017-Apr-23 04:30N 35°38' E 139°46'0 0.0
2017-Apr-23 04:00N 35°38' E 139°46'0 0.0
2017-Apr-23 03:30N 35°38' E 139°46'0 0.0
2017-Apr-23 03:00N 35°38' E 139°46'0 0.0
2017-Apr-23 02:30N 35°38' E 139°46'0 0.0
2017-Apr-23 02:00N 35°38' E 139°46'0 0.0
2017-Apr-23 01:30N 35°38' E 139°46'0 0.0
2017-Apr-23 01:00N 35°38' E 139°46'0 0.0
2017-Apr-23 00:30N 35°38' E 139°46'0 0.0
2017-Apr-23 00:00N 35°38' E 139°46'0 0.0
2017-Apr-22 23:30N 35°38' E 139°46'0 0.0
2017-Apr-22 23:00N 35°38' E 139°46'0 0.0
2017-Apr-22 22:30N 35°38' E 139°46'0 0.0
2017-Apr-22 22:00N 35°38' E 139°46'0 0.0
2017-Apr-22 21:30N 35°38' E 139°46'0 0.0
2017-Apr-22 21:00N 35°38' E 139°46'0 0.0
2017-Apr-22 20:30N 35°38' E 139°46'0 0.0
2017-Apr-22 20:00N 35°38' E 139°46'0 0.0
2017-Apr-22 19:30N 35°38' E 139°46'0 0.0
2017-Apr-22 19:00N 35°38' E 139°46'0 0.0
2017-Apr-22 18:30N 35°38' E 139°46'0 0.0
2017-Apr-22 18:00N 35°38' E 139°46'0 0.0
2017-Apr-22 17:30N 35°38' E 139°46'0 0.0
2017-Apr-22 17:00N 35°38' E 139°46'0 0.0
2017-Apr-22 16:30N 35°38' E 139°46'0 0.0
2017-Apr-22 16:00N 35°38' E 139°46'0 0.0
2017-Apr-22 15:30N 35°38' E 139°46'0 0.0
2017-Apr-22 15:00N 35°38' E 139°46'0 0.0
2017-Apr-22 14:30N 35°38' E 139°46'0 0.0
2017-Apr-22 13:30N 35°38' E 139°46'0 0.0
2017-Apr-22 13:00N 35°38' E 139°46'0 0.0
2017-Apr-22 12:30N 35°38' E 139°46'0 0.0
2017-Apr-22 12:00N 35°38' E 139°46'0 0.0
2017-Apr-22 11:30N 35°38' E 139°46'0 0.0
2017-Apr-22 11:00N 35°38' E 139°46'0 0.0
2017-Apr-22 10:30N 35°38' E 139°46'0 0.0
2017-Apr-22 10:00N 35°38' E 139°46'0 0.0
2017-Apr-22 09:30N 35°38' E 139°46'0 0.0
2017-Apr-22 09:00N 35°38' E 139°46'0 0.0
2017-Apr-22 08:30N 35°38' E 139°46'0 0.0
2017-Apr-22 08:00N 35°38' E 139°46'0 0.0
2017-Apr-22 07:30N 35°38' E 139°46'0 0.0
2017-Apr-22 07:00N 35°38' E 139°46'0 0.0
2017-Apr-22 06:30N 35°38' E 139°46'0 0.0
2017-Apr-22 06:00N 35°38' E 139°46'0 0.0
2017-Apr-22 05:30N 35°38' E 139°46'0 0.0
2017-Apr-22 05:00N 35°38' E 139°46'0 0.0
2017-Apr-22 04:30N 35°38' E 139°46'0 0.0
2017-Apr-22 04:00N 35°38' E 139°46'0 0.0
2017-Apr-22 03:30N 35°38' E 139°46'0 0.0
2017-Apr-22 03:00N 35°38' E 139°46'0 0.0
2017-Apr-22 02:30N 35°38' E 139°46'0 0.0
2017-Apr-22 02:00N 35°38' E 139°46'0 0.0
2017-Apr-22 01:30N 35°38' E 139°46'0 0.0
2017-Apr-22 01:00N 35°38' E 139°46'0 0.0
2017-Apr-22 00:30N 35°38' E 139°46'0 0.0
2017-Apr-22 00:00N 35°38' E 139°46'0 0.0
2017-Apr-21 23:30N 35°38' E 139°46'1 2.2
2017-Apr-21 23:00N 35°37' E 139°46'2 3.0
2017-Apr-21 22:30N 35°36' E 139°47'3 6.2
2017-Apr-21 22:00N 35°34' E 139°49'2 4.9
2017-Apr-21 21:30N 35°35' E 139°47'3 6.5
2017-Apr-21 21:00N 35°38' E 139°45'0 0.0
2017-Apr-21 20:30N 35°38' E 139°45'0 0.0
2017-Apr-21 20:00N 35°38' E 139°45'0 0.0
2017-Apr-21 19:30N 35°38' E 139°45'0 0.0
2017-Apr-21 19:00N 35°38' E 139°45'0 0.0
2017-Apr-21 18:30N 35°38' E 139°45'0 0.0
2017-Apr-21 18:00N 35°38' E 139°45'0 0.0
2017-Apr-21 17:30N 35°38' E 139°45'0 0.0
2017-Apr-21 17:00N 35°38' E 139°45'0 0.0
2017-Apr-21 16:30N 35°38' E 139°45'0 0.0
2017-Apr-21 16:00N 35°38' E 139°45'0 0.0
2017-Apr-21 15:30N 35°38' E 139°45'0 0.0
2017-Apr-21 15:00N 35°38' E 139°45'0 0.0
2017-Apr-21 14:30N 35°38' E 139°45'0 0.0
2017-Apr-21 13:30N 35°38' E 139°45'0 0.0
2017-Apr-21 13:00N 35°38' E 139°45'0 0.0
2017-Apr-21 12:30N 35°38' E 139°45'0 0.0
2017-Apr-21 12:00N 35°38' E 139°45'0 0.0
2017-Apr-21 11:30N 35°38' E 139°45'0 0.0
2017-Apr-21 11:00N 35°38' E 139°45'0 0.0
2017-Apr-21 10:30N 35°38' E 139°45'0 0.0
2017-Apr-21 10:00N 35°38' E 139°45'0 0.0
2017-Apr-21 09:26N 35°38' E 139°45'0 0.0
2017-Apr-21 09:00N 35°38' E 139°45'0 0.0
2017-Apr-21 08:30N 35°38' E 139°45'0 0.0
2017-Apr-21 08:00N 35°38' E 139°45'0 0.0
2017-Apr-21 07:30N 35°38' E 139°45'2 4.8
2017-Apr-21 07:00N 35°36' E 139°47'1 2.9
2017-Apr-21 06:30N 35°37' E 139°46'1 2.1
2017-Apr-21 06:00N 35°38' E 139°45'0 0.0
2017-Apr-21 05:30N 35°38' E 139°45'0 0.0
2017-Apr-21 05:00N 35°38' E 139°45'0 0.0
2017-Apr-21 04:30N 35°38' E 139°45'0 0.0
2017-Apr-21 04:00N 35°38' E 139°45'0 0.0
2017-Apr-21 03:30N 35°38' E 139°45'0 0.0
2017-Apr-21 02:59N 35°38' E 139°45'0 0.0
2017-Apr-21 02:30N 35°38' E 139°45'0 0.0
2017-Apr-21 02:00N 35°38' E 139°45'0 0.0
2017-Apr-21 01:30N 35°38' E 139°45'0 0.0
2017-Apr-21 01:00N 35°38' E 139°45'0 0.0
2017-Apr-21 00:30N 35°38' E 139°45'0 0.0
2017-Apr-21 00:00N 35°38' E 139°45'0 0.0
2017-Apr-20 23:30N 35°38' E 139°45'0 0.0
2017-Apr-20 23:00N 35°38' E 139°45'0 0.0
2017-Apr-20 22:30N 35°38' E 139°45'0 0.0
2017-Apr-20 21:59N 35°38' E 139°45'0 0.0
2017-Apr-20 21:30N 35°38' E 139°45'0 0.0
2017-Apr-20 21:00N 35°38' E 139°45'0 0.0
2017-Apr-20 20:30N 35°38' E 139°45'0 0.0
2017-Apr-20 20:00N 35°38' E 139°45'0 0.0
2017-Apr-20 19:30N 35°38' E 139°45'0 0.0
2017-Apr-20 19:00N 35°38' E 139°45'0 0.0
2017-Apr-20 18:30N 35°38' E 139°45'0 0.0
2017-Apr-20 18:00N 35°38' E 139°45'0 0.0
2017-Apr-20 17:30N 35°38' E 139°45'0 0.0
2017-Apr-20 17:00N 35°38' E 139°45'0 0.0
2017-Apr-20 16:30N 35°38' E 139°45'0 0.0
2017-Apr-20 16:00N 35°38' E 139°45'0 0.0
2017-Apr-20 15:30N 35°38' E 139°45'0 0.0
2017-Apr-20 15:00N 35°38' E 139°45'0 0.0
2017-Apr-20 14:00N 35°38' E 139°45'0 0.0
2017-Apr-20 13:30N 35°38' E 139°45'0 0.0
2017-Apr-20 13:00N 35°38' E 139°45'0 0.0
2017-Apr-20 12:30N 35°38' E 139°45'0 0.0
2017-Apr-20 12:00N 35°38' E 139°45'0 0.0
2017-Apr-20 11:30N 35°38' E 139°45'0 0.0
2017-Apr-20 11:00N 35°38' E 139°45'0 0.0
2017-Apr-20 10:30N 35°38' E 139°45'2 4.1
2017-Apr-20 10:00N 35°36' E 139°47'0 0.8
2017-Apr-20 09:30N 35°36' E 139°47'2 4.6
2017-Apr-20 09:00N 35°34' E 139°49'2 3.8
2017-Apr-20 08:30N 35°36' E 139°47'3 5.7
2017-Apr-20 08:00N 35°38' E 139°45'0 0.0
2017-Apr-20 07:30N 35°38' E 139°45'0 0.0
2017-Apr-20 07:00N 35°38' E 139°45'0 0.0
2017-Apr-20 06:30N 35°38' E 139°45'0 0.0
2017-Apr-20 06:00N 35°38' E 139°45'0 0.0
2017-Apr-20 05:30N 35°38' E 139°45'0 0.0
2017-Apr-20 04:57N 35°38' E 139°45'0 0.0
2017-Apr-20 04:30N 35°38' E 139°45'0 0.0
2017-Apr-20 04:00N 35°38' E 139°45'0 0.0
2017-Apr-20 03:30N 35°38' E 139°45'0 0.0
2017-Apr-20 03:00N 35°38' E 139°45'0 0.0
2017-Apr-20 02:30N 35°38' E 139°45'0 0.0
2017-Apr-20 02:00N 35°38' E 139°45'0 0.0
2017-Apr-20 01:30N 35°38' E 139°45'0 0.0
2017-Apr-20 01:00N 35°38' E 139°45'0 0.0
2017-Apr-20 00:30N 35°38' E 139°45'0 0.0
2017-Apr-20 00:00N 35°38' E 139°45'0 0.0
2017-Apr-19 23:30N 35°38' E 139°45'0 0.0
2017-Apr-19 23:00N 35°38' E 139°45'0 0.0
2017-Apr-19 22:30N 35°38' E 139°45'0 0.0
2017-Apr-19 22:00N 35°38' E 139°45'0 0.0
2017-Apr-19 21:30N 35°38' E 139°45'0 0.0
2017-Apr-19 21:00N 35°38' E 139°45'0 0.0
2017-Apr-19 20:30N 35°38' E 139°45'0 0.0
2017-Apr-19 20:00N 35°38' E 139°45'0 0.0
2017-Apr-19 19:30N 35°38' E 139°45'0 0.0
2017-Apr-19 19:00N 35°38' E 139°45'0 0.0
2017-Apr-19 18:30N 35°38' E 139°45'0 0.0
2017-Apr-19 18:00N 35°38' E 139°45'0 0.0
2017-Apr-19 17:30N 35°38' E 139°45'0 0.0
2017-Apr-19 17:00N 35°38' E 139°45'0 0.0
2017-Apr-19 16:30N 35°38' E 139°45'0 0.0
2017-Apr-19 16:00N 35°38' E 139°45'0 0.0
2017-Apr-19 15:30N 35°38' E 139°45'0 0.0
2017-Apr-19 15:00N 35°38' E 139°45'0 0.0
2017-Apr-19 14:30N 35°38' E 139°45'0 0.0
2017-Apr-19 13:30N 35°38' E 139°45'3 5.6
2017-Apr-19 13:00N 35°36' E 139°48'0 0.1
2017-Apr-19 12:30N 35°36' E 139°48'0 0.0
2017-Apr-19 12:00N 35°36' E 139°48'0 0.0
2017-Apr-19 11:23N 35°36' E 139°48'0 0.0
2017-Apr-19 10:53N 35°36' E 139°48'0 0.0
2017-Apr-19 10:30N 35°36' E 139°48'0 0.0
2017-Apr-19 10:00N 35°36' E 139°48'1 1.3
2017-Apr-19 09:30N 35°36' E 139°47'1 2.6
2017-Apr-19 09:00N 35°35' E 139°48'1 1.5
2017-Apr-19 08:30N 35°36' E 139°48'1 1.9
2017-Apr-19 08:00N 35°37' E 139°47'1 2.0
2017-Apr-19 07:30N 35°36' E 139°48'1 2.1
2017-Apr-19 07:00N 35°37' E 139°47'2 3.6
2017-Apr-19 06:30N 35°38' E 139°45'0 0.0
2017-Apr-19 06:00N 35°38' E 139°45'0 0.0
2017-Apr-19 05:30N 35°38' E 139°45'0 0.0
2017-Apr-19 05:00N 35°38' E 139°45'0 0.0
2017-Apr-19 04:30N 35°38' E 139°45'0 0.0
2017-Apr-19 04:00N 35°38' E 139°45'0 0.0
2017-Apr-19 03:30N 35°38' E 139°45'0 0.0
2017-Apr-19 03:00N 35°38' E 139°45'0 0.0
2017-Apr-19 02:30N 35°38' E 139°45'0 0.0
2017-Apr-19 02:00N 35°38' E 139°45'0 0.0
2017-Apr-19 01:30N 35°38' E 139°45'0 0.0
2017-Apr-19 01:00N 35°38' E 139°45'0 0.0
2017-Apr-19 00:30N 35°38' E 139°45'0 0.0
2017-Apr-19 00:00N 35°38' E 139°45'0 0.0
2017-Apr-18 23:30N 35°38' E 139°45'0 0.0
2017-Apr-18 23:00N 35°38' E 139°45'1 3.0
2017-Apr-18 22:30N 35°37' E 139°46'1 2.9
2017-Apr-18 22:00N 35°36' E 139°47'1 1.3
2017-Apr-18 21:30N 35°35' E 139°47'1 1.4
2017-Apr-18 20:54N 35°36' E 139°46'1 1.9
2017-Apr-18 20:30N 35°36' E 139°47'0 0.6
2017-Apr-18 20:00N 35°37' E 139°47'2 3.7
2017-Apr-18 19:30N 35°38' E 139°45'0 0.0
2017-Apr-18 19:00N 35°38' E 139°45'0 0.0
2017-Apr-18 18:30N 35°38' E 139°45'0 0.0
2017-Apr-18 18:00N 35°38' E 139°45'0 0.0
2017-Apr-18 17:30N 35°38' E 139°45'0 0.0
2017-Apr-18 17:00N 35°38' E 139°45'0 0.0
2017-Apr-18 16:30N 35°38' E 139°45'0 0.0
2017-Apr-18 16:00N 35°38' E 139°45'0 0.0
2017-Apr-18 15:30N 35°38' E 139°45'0 0.0
2017-Apr-18 15:00N 35°38' E 139°45'0 0.0
2017-Apr-18 14:30N 35°38' E 139°45'0 0.0
2017-Apr-18 13:30N 35°38' E 139°45'0 0.0
2017-Apr-18 13:00N 35°38' E 139°45'0 0.0
2017-Apr-18 12:30N 35°38' E 139°45'0 0.0
2017-Apr-18 12:00N 35°38' E 139°45'0 0.0
2017-Apr-18 11:30N 35°38' E 139°45'0 0.0
2017-Apr-18 11:00N 35°38' E 139°45'0 0.0
2017-Apr-18 10:30N 35°38' E 139°45'0 0.0
2017-Apr-18 10:00N 35°38' E 139°45'0 0.0
2017-Apr-18 09:30N 35°38' E 139°45'0 0.0
2017-Apr-18 09:00N 35°38' E 139°45'0 0.0
2017-Apr-18 08:30N 35°38' E 139°45'0 0.0
2017-Apr-18 08:00N 35°38' E 139°45'0 0.0
2017-Apr-18 07:30N 35°38' E 139°45'0 0.0
2017-Apr-18 07:00N 35°38' E 139°45'0 0.0
2017-Apr-18 06:30N 35°38' E 139°45'0 0.0
2017-Apr-18 06:00N 35°38' E 139°45'0 0.0
2017-Apr-18 05:30N 35°38' E 139°45'0 0.0
2017-Apr-18 05:00N 35°38' E 139°45'0 0.0
2017-Apr-18 04:29N 35°38' E 139°45'0 0.0
2017-Apr-18 04:00N 35°38' E 139°45'0 0.4
2017-Apr-18 03:30N 35°38' E 139°46'0 0.4
2017-Apr-18 03:00N 35°38' E 139°45'0 0.0
2017-Apr-18 02:30N 35°38' E 139°45'0 0.0
2017-Apr-18 02:00N 35°38' E 139°45'0 0.0
2017-Apr-18 01:30N 35°38' E 139°45'0 0.0
2017-Apr-18 01:00N 35°38' E 139°45'0 0.0
2017-Apr-18 00:30N 35°38' E 139°45'0 0.6
2017-Apr-18 00:00N 35°38' E 139°46'3 6.5
2017-Apr-17 23:30N 35°35' E 139°48'2 3.6
2017-Apr-17 23:00N 35°37' E 139°48'0 0.7
2017-Apr-17 22:30N 35°37' E 139°48'2 4.8
2017-Apr-17 22:00N 35°38' E 139°46'0 0.0
2017-Apr-17 21:30N 35°38' E 139°46'0 0.0
2017-Apr-17 21:00N 35°38' E 139°46'0 0.0
2017-Apr-17 20:30N 35°38' E 139°46'0 0.0
2017-Apr-17 20:00N 35°38' E 139°46'0 0.0
2017-Apr-17 19:30N 35°38' E 139°46'0 0.0
2017-Apr-17 19:00N 35°38' E 139°46'0 0.0
2017-Apr-17 18:30N 35°38' E 139°46'0 0.0
2017-Apr-17 18:00N 35°38' E 139°46'0 0.0
2017-Apr-17 17:30N 35°38' E 139°46'0 0.0
2017-Apr-17 17:00N 35°38' E 139°46'0 0.0
2017-Apr-17 16:30N 35°38' E 139°46'0 0.0
2017-Apr-17 16:00N 35°38' E 139°46'0 0.0
2017-Apr-17 15:30N 35°38' E 139°46'0 0.0
2017-Apr-17 15:00N 35°38' E 139°46'0 0.0
2017-Apr-17 14:30N 35°38' E 139°46'0 0.0
2017-Apr-17 13:30N 35°38' E 139°46'0 0.0
2017-Apr-17 13:00N 35°38' E 139°46'0 0.0
2017-Apr-17 12:30N 35°38' E 139°46'2 3.5
2017-Apr-17 12:00N 35°37' E 139°46'1 1.7
2017-Apr-17 11:30N 35°36' E 139°46'2 4.6
2017-Apr-17 11:00N 35°34' E 139°49'2 4.0
2017-Apr-17 10:30N 35°35' E 139°47'0 0.0
2017-Apr-17 10:00N 35°35' E 139°47'0 0.6
2017-Apr-17 09:30N 35°35' E 139°47'1 1.0
2017-Apr-17 09:00N 35°36' E 139°46'1 2.4
2017-Apr-17 08:30N 35°37' E 139°46'1 2.7
2017-Apr-17 08:00N 35°38' E 139°46'0 0.0
2017-Apr-17 07:30N 35°38' E 139°46'0 0.0
2017-Apr-17 07:00N 35°38' E 139°46'0 0.0
2017-Apr-17 06:30N 35°38' E 139°46'0 0.0
2017-Apr-17 06:00N 35°38' E 139°46'0 0.0
2017-Apr-17 05:30N 35°38' E 139°46'0 0.0
2017-Apr-17 05:00N 35°38' E 139°46'0 0.0
2017-Apr-17 04:30N 35°38' E 139°46'0 0.0
2017-Apr-17 03:59N 35°38' E 139°46'0 0.0
2017-Apr-17 02:15N 35°38' E 139°46'0 0.0
2017-Apr-17 02:00N 35°38' E 139°46'0 0.0
2017-Apr-17 01:30N 35°38' E 139°46'0 0.0
2017-Apr-17 00:57N 35°38' E 139°46'0 0.0
2017-Apr-17 00:30N 35°38' E 139°46'0 0.0
2017-Apr-17 00:00N 35°38' E 139°46'0 0.0
2017-Apr-16 23:30N 35°38' E 139°46'0 0.0
2017-Apr-16 23:00N 35°38' E 139°46'0 0.0
2017-Apr-16 22:30N 35°38' E 139°46'0 0.0
2017-Apr-16 22:00N 35°38' E 139°46'0 0.0
2017-Apr-16 21:30N 35°38' E 139°46'0 0.0
2017-Apr-16 21:00N 35°38' E 139°46'0 0.0
2017-Apr-16 20:30N 35°38' E 139°46'0 0.0
2017-Apr-16 20:00N 35°38' E 139°46'0 0.0
2017-Apr-16 19:30N 35°38' E 139°46'0 0.0
2017-Apr-16 19:00N 35°38' E 139°46'0 0.0
2017-Apr-16 18:30N 35°38' E 139°46'0 0.0
2017-Apr-16 18:00N 35°38' E 139°46'0 0.0
2017-Apr-16 17:30N 35°38' E 139°46'0 0.0
2017-Apr-16 17:00N 35°38' E 139°46'0 0.0
2017-Apr-16 16:30N 35°38' E 139°46'0 0.0
2017-Apr-16 16:00N 35°38' E 139°46'0 0.0
2017-Apr-16 15:30N 35°38' E 139°46'0 0.0
2017-Apr-16 15:00N 35°38' E 139°46'0 0.0
2017-Apr-16 14:30N 35°38' E 139°46'0 0.0
2017-Apr-16 13:30N 35°38' E 139°46'0 0.0
2017-Apr-16 13:00N 35°38' E 139°46'0 0.0
2017-Apr-16 12:30N 35°38' E 139°46'0 0.0
2017-Apr-16 12:00N 35°38' E 139°46'0 0.0
2017-Apr-16 11:30N 35°38' E 139°46'0 0.0
2017-Apr-16 11:00N 35°38' E 139°46'0 0.0
2017-Apr-16 10:30N 35°38' E 139°46'0 0.0
2017-Apr-16 10:00N 35°38' E 139°46'0 0.0
2017-Apr-16 09:30N 35°38' E 139°46'0 0.0
2017-Apr-16 09:00N 35°38' E 139°46'0 0.0
2017-Apr-16 08:30N 35°38' E 139°46'0 0.0
2017-Apr-16 08:00N 35°38' E 139°46'0 0.0
2017-Apr-16 07:30N 35°38' E 139°46'0 0.0
2017-Apr-16 07:00N 35°38' E 139°46'0 0.0
2017-Apr-16 06:30N 35°38' E 139°46'0 0.0
2017-Apr-16 06:00N 35°38' E 139°46'0 0.0
2017-Apr-16 05:30N 35°38' E 139°46'0 0.0
2017-Apr-16 05:00N 35°38' E 139°46'0 0.0
2017-Apr-16 04:30N 35°38' E 139°46'0 0.0
2017-Apr-16 04:00N 35°38' E 139°46'0 0.0
2017-Apr-16 03:30N 35°38' E 139°46'0 0.0
2017-Apr-16 03:00N 35°38' E 139°46'0 0.0
2017-Apr-16 02:30N 35°38' E 139°46'0 0.0
2017-Apr-16 02:00N 35°38' E 139°46'0 0.0
2017-Apr-16 01:30N 35°38' E 139°46'0 0.0
2017-Apr-16 01:00N 35°38' E 139°46'0 0.0
2017-Apr-16 00:30N 35°38' E 139°46'0 0.0
2017-Apr-16 00:00N 35°38' E 139°46'0 0.0
2017-Apr-15 23:30N 35°38' E 139°46'0 0.0
2017-Apr-15 23:00N 35°38' E 139°46'0 0.0
2017-Apr-15 22:30N 35°38' E 139°46'0 0.0
2017-Apr-15 22:00N 35°38' E 139°46'0 0.0
2017-Apr-15 21:30N 35°38' E 139°46'0 0.0
2017-Apr-15 21:00N 35°38' E 139°46'0 0.0
2017-Apr-15 20:30N 35°38' E 139°46'0 0.0
2017-Apr-15 20:00N 35°38' E 139°46'0 0.0
2017-Apr-15 19:30N 35°38' E 139°46'0 0.0
2017-Apr-15 19:00N 35°38' E 139°46'0 0.0
2017-Apr-15 18:30N 35°38' E 139°46'0 0.0
2017-Apr-15 18:00N 35°38' E 139°46'0 0.0
2017-Apr-15 17:30N 35°38' E 139°46'0 0.0
2017-Apr-15 17:00N 35°38' E 139°46'0 0.0
2017-Apr-15 16:30N 35°38' E 139°46'0 0.0
2017-Apr-15 16:00N 35°38' E 139°46'0 0.0
2017-Apr-15 15:30N 35°38' E 139°46'0 0.0
2017-Apr-15 15:00N 35°38' E 139°46'0 0.0
2017-Apr-15 14:30N 35°38' E 139°46'0 0.0
2017-Apr-15 13:30N 35°38' E 139°46'0 0.0
2017-Apr-15 13:00N 35°38' E 139°46'0 0.0
2017-Apr-15 12:30N 35°38' E 139°46'0 0.0
2017-Apr-15 12:00N 35°38' E 139°46'0 0.0
2017-Apr-15 11:30N 35°38' E 139°46'0 0.1
2017-Apr-15 11:00N 35°38' E 139°45'0 0.1
2017-Apr-15 10:30N 35°38' E 139°46'0 0.0
2017-Apr-15 10:00N 35°38' E 139°46'0 0.0
2017-Apr-15 09:30N 35°38' E 139°46'0 0.0
2017-Apr-15 09:00N 35°38' E 139°46'0 0.0
2017-Apr-15 08:30N 35°38' E 139°46'0 0.0
2017-Apr-15 08:00N 35°38' E 139°46'0 0.0
2017-Apr-15 07:30N 35°38' E 139°46'0 0.0
2017-Apr-15 07:00N 35°38' E 139°46'0 0.0
2017-Apr-15 06:30N 35°38' E 139°46'0 0.0
2017-Apr-15 06:00N 35°38' E 139°46'0 0.0
2017-Apr-15 05:30N 35°38' E 139°46'0 0.0
2017-Apr-15 05:00N 35°38' E 139°46'0 0.0
2017-Apr-15 04:30N 35°38' E 139°46'0 0.0
2017-Apr-15 04:00N 35°38' E 139°46'0 0.0
2017-Apr-15 03:30N 35°38' E 139°46'0 0.0
2017-Apr-15 03:00N 35°38' E 139°46'0 0.0
2017-Apr-15 02:30N 35°38' E 139°46'0 0.0
2017-Apr-15 02:00N 35°38' E 139°46'0 0.0
2017-Apr-15 01:30N 35°38' E 139°46'0 0.0
2017-Apr-15 01:00N 35°38' E 139°46'0 0.0
2017-Apr-15 00:30N 35°38' E 139°46'0 0.0
2017-Apr-15 00:00N 35°38' E 139°46'0 0.0
2017-Apr-14 23:30N 35°38' E 139°46'1 1.6
2017-Apr-14 23:00N 35°37' E 139°46'2 3.1
2017-Apr-14 22:31N 35°36' E 139°46'2 4.7
2017-Apr-14 22:00N 35°38' E 139°45'0 0.0
2017-Apr-14 21:30N 35°38' E 139°45'0 0.0
2017-Apr-14 21:00N 35°38' E 139°45'0 0.0
2017-Apr-14 20:30N 35°38' E 139°45'0 0.0
2017-Apr-14 20:00N 35°38' E 139°45'0 0.0
2017-Apr-14 19:30N 35°38' E 139°45'0 0.0
2017-Apr-14 19:00N 35°38' E 139°45'0 0.0
2017-Apr-14 18:30N 35°38' E 139°45'0 0.0
2017-Apr-14 18:00N 35°38' E 139°45'0 0.0
2017-Apr-14 17:30N 35°38' E 139°45'  
Track history (hours):
 
Tides and Currents Weather Stations Pressure Air Temp Water Temp Dewpoint Dewpoint Depression Visibility Wind Speed Wind Dir Waves Ship Positions

Kaio Maru

Last reported at 2017-Apr-24 17:00 UTC. Time now 2017-Apr-24 17:22 UTC.
Position N 35°38' E 139°46'.

Length 36 m; draft 3.2 m.

Type: Tug. MMSI: 431001455.

Date/timePositionNaut miles runAvg speedWind from/ knotsBaromVisibWave heightAir tempDewpointWater temp
2017-Apr-24 17:00N 35°38' E 139°46'0 0.0
2017-Apr-24 16:30N 35°38' E 139°46'0 0.0
2017-Apr-24 16:00N 35°38' E 139°46'0 0.0
2017-Apr-24 15:30N 35°38' E 139°46'0 0.0
2017-Apr-24 15:00N 35°38' E 139°46'0 0.0
2017-Apr-24 14:30N 35°38' E 139°46'0 0.0
2017-Apr-24 13:30N 35°38' E 139°46'0 0.0
2017-Apr-24 13:00N 35°38' E 139°46'0 0.0
2017-Apr-24 12:30N 35°38' E 139°46'0 0.0
2017-Apr-24 12:00N 35°38' E 139°46'0 0.0
2017-Apr-24 11:30N 35°38' E 139°46'0 0.0
2017-Apr-24 11:00N 35°38' E 139°46'0 0.0
2017-Apr-24 10:30N 35°38' E 139°46'0 0.0
2017-Apr-24 10:00N 35°38' E 139°46'0 0.0
2017-Apr-24 09:30N 35°38' E 139°46'0 0.0
2017-Apr-24 09:00N 35°38' E 139°46'0 0.0
2017-Apr-24 08:30N 35°38' E 139°46'0 0.0
2017-Apr-24 08:01N 35°38' E 139°46'0 0.0
2017-Apr-24 07:30N 35°38' E 139°46'0 0.0
2017-Apr-24 07:00N 35°38' E 139°46'0 0.0
2017-Apr-24 06:30N 35°38' E 139°46'0 0.0
2017-Apr-24 06:00N 35°38' E 139°46'0 0.0
2017-Apr-24 05:30N 35°38' E 139°46'0 0.0
2017-Apr-24 05:00N 35°38' E 139°46'0 0.0
2017-Apr-24 04:30N 35°38' E 139°46'0 0.0
2017-Apr-24 04:00N 35°38' E 139°46'0 0.0
2017-Apr-24 03:30N 35°38' E 139°46'0 0.0
2017-Apr-24 03:00N 35°38' E 139°46'1 1.2
2017-Apr-24 02:30N 35°38' E 139°46'2 3.1
2017-Apr-24 02:00N 35°36' E 139°46'2 3.4
2017-Apr-24 01:31N 35°35' E 139°48'1 1.9
2017-Apr-24 01:00N 35°36' E 139°47'3 5.8
2017-Apr-24 00:30N 35°38' E 139°46'0 0.0
2017-Apr-24 00:00N 35°38' E 139°46'0 0.0
2017-Apr-23 23:30N 35°38' E 139°46'0 0.0
2017-Apr-23 23:00N 35°38' E 139°46'0 0.0
2017-Apr-23 22:30N 35°38' E 139°46'0 0.0
2017-Apr-23 22:00N 35°38' E 139°46'0 0.0
2017-Apr-23 21:30N 35°38' E 139°46'0 0.0
2017-Apr-23 21:00N 35°38' E 139°46'0 0.0
2017-Apr-23 20:30N 35°38' E 139°46'0 0.0
2017-Apr-23 20:00N 35°38' E 139°46'0 0.0
2017-Apr-23 19:30N 35°38' E 139°46'0 0.0
2017-Apr-23 19:00N 35°38' E 139°46'0 0.0
2017-Apr-23 18:30N 35°38' E 139°46'0 0.0
2017-Apr-23 18:00N 35°38' E 139°46'0 0.0
2017-Apr-23 17:30N 35°38' E 139°46'0 0.0
2017-Apr-23 17:00N 35°38' E 139°46'0 0.0
2017-Apr-23 16:30N 35°38' E 139°46'0 0.0
2017-Apr-23 16:00N 35°38' E 139°46'0 0.0
2017-Apr-23 15:30N 35°38' E 139°46'0 0.0
2017-Apr-23 15:00N 35°38' E 139°46'0 0.0
2017-Apr-23 14:00N 35°38' E 139°46'0 0.0
2017-Apr-23 13:30N 35°38' E 139°46'0 0.0
2017-Apr-23 13:00N 35°38' E 139°46'0 0.0
2017-Apr-23 12:30N 35°38' E 139°46'0 0.0
2017-Apr-23 12:00N 35°38' E 139°46'0 0.0
2017-Apr-23 11:30N 35°38' E 139°46'0 0.0
2017-Apr-23 11:00N 35°38' E 139°46'0 0.0
2017-Apr-23 10:30N 35°38' E 139°46'0 0.0
2017-Apr-23 10:00N 35°38' E 139°46'2 4.1
2017-Apr-23 09:30N 35°36' E 139°47'1 1.1
2017-Apr-23 09:00N 35°36' E 139°47'2 3.5
2017-Apr-23 08:30N 35°35' E 139°48'4 8.6
2017-Apr-23 08:00N 35°38' E 139°46'0 0.0
2017-Apr-23 07:30N 35°38' E 139°46'0 0.0
2017-Apr-23 07:00N 35°38' E 139°46'0 0.0
2017-Apr-23 06:30N 35°38' E 139°46'0 0.0
2017-Apr-23 06:00N 35°38' E 139°46'0 0.0
2017-Apr-23 05:30N 35°38' E 139°46'0 0.0
2017-Apr-23 05:00N 35°38' E 139°46'0 0.0
2017-Apr-23 04:30N 35°38' E 139°46'0 0.0
2017-Apr-23 04:00N 35°38' E 139°46'0 0.0
2017-Apr-23 03:30N 35°38' E 139°46'0 0.0
2017-Apr-23 03:00N 35°38' E 139°46'0 0.0
2017-Apr-23 02:30N 35°38' E 139°46'0 0.0
2017-Apr-23 02:00N 35°38' E 139°46'0 0.0
2017-Apr-23 01:30N 35°38' E 139°46'0 0.0
2017-Apr-23 01:00N 35°38' E 139°46'0 0.0
2017-Apr-23 00:30N 35°38' E 139°46'0 0.0
2017-Apr-23 00:00N 35°38' E 139°46'0 0.0
2017-Apr-22 23:30N 35°38' E 139°46'0 0.0
2017-Apr-22 23:00N 35°38' E 139°46'0 0.0
2017-Apr-22 22:30N 35°38' E 139°46'0 0.0
2017-Apr-22 22:00N 35°38' E 139°46'0 0.0
2017-Apr-22 21:30N 35°38' E 139°46'0 0.0
2017-Apr-22 21:00N 35°38' E 139°46'0 0.0
2017-Apr-22 20:30N 35°38' E 139°46'0 0.0
2017-Apr-22 20:00N 35°38' E 139°46'0 0.0
2017-Apr-22 19:30N 35°38' E 139°46'0 0.0
2017-Apr-22 19:00N 35°38' E 139°46'0 0.0
2017-Apr-22 18:30N 35°38' E 139°46'0 0.0
2017-Apr-22 18:00N 35°38' E 139°46'0 0.0
2017-Apr-22 17:30N 35°38' E 139°46'0 0.0
2017-Apr-22 17:00N 35°38' E 139°46'0 0.0
2017-Apr-22 16:30N 35°38' E 139°46'0 0.0
2017-Apr-22 16:00N 35°38' E 139°46'0 0.0
2017-Apr-22 15:30N 35°38' E 139°46'0 0.0
2017-Apr-22 15:00N 35°38' E 139°46'0 0.0
2017-Apr-22 14:30N 35°38' E 139°46'0 0.0
2017-Apr-22 13:30N 35°38' E 139°46'0 0.0
2017-Apr-22 13:00N 35°38' E 139°46'0 0.0
2017-Apr-22 12:30N 35°38' E 139°46'0 0.0
2017-Apr-22 12:00N 35°38' E 139°46'0 0.0
2017-Apr-22 11:30N 35°38' E 139°46'0 0.0
2017-Apr-22 11:00N 35°38' E 139°46'0 0.0
2017-Apr-22 10:30N 35°38' E 139°46'0 0.0
2017-Apr-22 10:00N 35°38' E 139°46'0 0.0
2017-Apr-22 09:30N 35°38' E 139°46'0 0.0
2017-Apr-22 09:00N 35°38' E 139°46'0 0.0
2017-Apr-22 08:30N 35°38' E 139°46'0 0.0
2017-Apr-22 08:00N 35°38' E 139°46'0 0.0
2017-Apr-22 07:30N 35°38' E 139°46'0 0.0
2017-Apr-22 07:00N 35°38' E 139°46'0 0.0
2017-Apr-22 06:30N 35°38' E 139°46'0 0.0
2017-Apr-22 06:00N 35°38' E 139°46'0 0.0
2017-Apr-22 05:30N 35°38' E 139°46'0 0.0
2017-Apr-22 05:00N 35°38' E 139°46'0 0.0
2017-Apr-22 04:30N 35°38' E 139°46'0 0.0
2017-Apr-22 04:00N 35°38' E 139°46'0 0.0
2017-Apr-22 03:30N 35°38' E 139°46'0 0.0
2017-Apr-22 03:00N 35°38' E 139°46'0 0.0
2017-Apr-22 02:30N 35°38' E 139°46'0 0.0
2017-Apr-22 02:00N 35°38' E 139°46'0 0.0
2017-Apr-22 01:30N 35°38' E 139°46'0 0.0
2017-Apr-22 01:00N 35°38' E 139°46'0 0.0
2017-Apr-22 00:30N 35°38' E 139°46'0 0.0
2017-Apr-22 00:00N 35°38' E 139°46'0 0.0
2017-Apr-21 23:30N 35°38' E 139°46'1 2.2
2017-Apr-21 23:00N 35°37' E 139°46'2 3.0
2017-Apr-21 22:30N 35°36' E 139°47'3 6.2
2017-Apr-21 22:00N 35°34' E 139°49'2 4.9
2017-Apr-21 21:30N 35°35' E 139°47'3 6.5
2017-Apr-21 21:00N 35°38' E 139°45'0 0.0
2017-Apr-21 20:30N 35°38' E 139°45'0 0.0
2017-Apr-21 20:00N 35°38' E 139°45'0 0.0
2017-Apr-21 19:30N 35°38' E 139°45'0 0.0
2017-Apr-21 19:00N 35°38' E 139°45'0 0.0
2017-Apr-21 18:30N 35°38' E 139°45'0 0.0
2017-Apr-21 18:00N 35°38' E 139°45'0 0.0
2017-Apr-21 17:30N 35°38' E 139°45'0 0.0
2017-Apr-21 17:00N 35°38' E 139°45'0 0.0
2017-Apr-21 16:30N 35°38' E 139°45'0 0.0
2017-Apr-21 16:00N 35°38' E 139°45'0 0.0
2017-Apr-21 15:30N 35°38' E 139°45'0 0.0
2017-Apr-21 15:00N 35°38' E 139°45'0 0.0
2017-Apr-21 14:30N 35°38' E 139°45'0 0.0
2017-Apr-21 13:30N 35°38' E 139°45'0 0.0
2017-Apr-21 13:00N 35°38' E 139°45'0 0.0
2017-Apr-21 12:30N 35°38' E 139°45'0 0.0
2017-Apr-21 12:00N 35°38' E 139°45'0 0.0
2017-Apr-21 11:30N 35°38' E 139°45'0 0.0
2017-Apr-21 11:00N 35°38' E 139°45'0 0.0
2017-Apr-21 10:30N 35°38' E 139°45'0 0.0
2017-Apr-21 10:00N 35°38' E 139°45'0 0.0
2017-Apr-21 09:26N 35°38' E 139°45'0 0.0
2017-Apr-21 09:00N 35°38' E 139°45'0 0.0
2017-Apr-21 08:30N 35°38' E 139°45'0 0.0
2017-Apr-21 08:00N 35°38' E 139°45'0 0.0
2017-Apr-21 07:30N 35°38' E 139°45'2 4.8
2017-Apr-21 07:00N 35°36' E 139°47'1 2.9
2017-Apr-21 06:30N 35°37' E 139°46'1 2.1
2017-Apr-21 06:00N 35°38' E 139°45'0 0.0
2017-Apr-21 05:30N 35°38' E 139°45'0 0.0
2017-Apr-21 05:00N 35°38' E 139°45'0 0.0
2017-Apr-21 04:30N 35°38' E 139°45'0 0.0
2017-Apr-21 04:00N 35°38' E 139°45'0 0.0
2017-Apr-21 03:30N 35°38' E 139°45'0 0.0
2017-Apr-21 02:59N 35°38' E 139°45'0 0.0
2017-Apr-21 02:30N 35°38' E 139°45'0 0.0
2017-Apr-21 02:00N 35°38' E 139°45'0 0.0
2017-Apr-21 01:30N 35°38' E 139°45'0 0.0
2017-Apr-21 01:00N 35°38' E 139°45'0 0.0
2017-Apr-21 00:30N 35°38' E 139°45'0 0.0
2017-Apr-21 00:00N 35°38' E 139°45'0 0.0
2017-Apr-20 23:30N 35°38' E 139°45'0 0.0
2017-Apr-20 23:00N 35°38' E 139°45'0 0.0
2017-Apr-20 22:30N 35°38' E 139°45'0 0.0
2017-Apr-20 21:59N 35°38' E 139°45'0 0.0
2017-Apr-20 21:30N 35°38' E 139°45'0 0.0
2017-Apr-20 21:00N 35°38' E 139°45'0 0.0
2017-Apr-20 20:30N 35°38' E 139°45'0 0.0
2017-Apr-20 20:00N 35°38' E 139°45'0 0.0
2017-Apr-20 19:30N 35°38' E 139°45'0 0.0
2017-Apr-20 19:00N 35°38' E 139°45'0 0.0
2017-Apr-20 18:30N 35°38' E 139°45'0 0.0
2017-Apr-20 18:00N 35°38' E 139°45'0 0.0
2017-Apr-20 17:30N 35°38' E 139°45'0 0.0
2017-Apr-20 17:00N 35°38' E 139°45'0 0.0
2017-Apr-20 16:30N 35°38' E 139°45'0 0.0
2017-Apr-20 16:00N 35°38' E 139°45'0 0.0
2017-Apr-20 15:30N 35°38' E 139°45'0 0.0
2017-Apr-20 15:00N 35°38' E 139°45'0 0.0
2017-Apr-20 14:00N 35°38' E 139°45'0 0.0
2017-Apr-20 13:30N 35°38' E 139°45'0 0.0
2017-Apr-20 13:00N 35°38' E 139°45'0 0.0
2017-Apr-20 12:30N 35°38' E 139°45'0 0.0
2017-Apr-20 12:00N 35°38' E 139°45'0 0.0
2017-Apr-20 11:30N 35°38' E 139°45'0 0.0
2017-Apr-20 11:00N 35°38' E 139°45'0 0.0
2017-Apr-20 10:30N 35°38' E 139°45'2 4.1
2017-Apr-20 10:00N 35°36' E 139°47'0 0.8
2017-Apr-20 09:30N 35°36' E 139°47'2 4.6
2017-Apr-20 09:00N 35°34' E 139°49'2 3.8
2017-Apr-20 08:30N 35°36' E 139°47'3 5.7
2017-Apr-20 08:00N 35°38' E 139°45'0 0.0
2017-Apr-20 07:30N 35°38' E 139°45'0 0.0
2017-Apr-20 07:00N 35°38' E 139°45'0 0.0
2017-Apr-20 06:30N 35°38' E 139°45'0 0.0
2017-Apr-20 06:00N 35°38' E 139°45'0 0.0
2017-Apr-20 05:30N 35°38' E 139°45'0 0.0
2017-Apr-20 04:57N 35°38' E 139°45'0 0.0
2017-Apr-20 04:30N 35°38' E 139°45'0 0.0
2017-Apr-20 04:00N 35°38' E 139°45'0 0.0
2017-Apr-20 03:30N 35°38' E 139°45'0 0.0
2017-Apr-20 03:00N 35°38' E 139°45'0 0.0
2017-Apr-20 02:30N 35°38' E 139°45'0 0.0
2017-Apr-20 02:00N 35°38' E 139°45'0 0.0
2017-Apr-20 01:30N 35°38' E 139°45'0 0.0
2017-Apr-20 01:00N 35°38' E 139°45'0 0.0
2017-Apr-20 00:30N 35°38' E 139°45'0 0.0
2017-Apr-20 00:00N 35°38' E 139°45'0 0.0
2017-Apr-19 23:30N 35°38' E 139°45'0 0.0
2017-Apr-19 23:00N 35°38' E 139°45'0 0.0
2017-Apr-19 22:30N 35°38' E 139°45'0 0.0
2017-Apr-19 22:00N 35°38' E 139°45'0 0.0
2017-Apr-19 21:30N 35°38' E 139°45'0 0.0
2017-Apr-19 21:00N 35°38' E 139°45'0 0.0
2017-Apr-19 20:30N 35°38' E 139°45'0 0.0
2017-Apr-19 20:00N 35°38' E 139°45'0 0.0
2017-Apr-19 19:30N 35°38' E 139°45'0 0.0
2017-Apr-19 19:00N 35°38' E 139°45'0 0.0
2017-Apr-19 18:30N 35°38' E 139°45'0 0.0
2017-Apr-19 18:00N 35°38' E 139°45'0 0.0
2017-Apr-19 17:30N 35°38' E 139°45'0 0.0
2017-Apr-19 17:00N 35°38' E 139°45'0 0.0
2017-Apr-19 16:30N 35°38' E 139°45'0 0.0
2017-Apr-19 16:00N 35°38' E 139°45'0 0.0
2017-Apr-19 15:30N 35°38' E 139°45'0 0.0
2017-Apr-19 15:00N 35°38' E 139°45'0 0.0
2017-Apr-19 14:30N 35°38' E 139°45'0 0.0
2017-Apr-19 13:30N 35°38' E 139°45'3 5.6
2017-Apr-19 13:00N 35°36' E 139°48'0 0.1
2017-Apr-19 12:30N 35°36' E 139°48'0 0.0
2017-Apr-19 12:00N 35°36' E 139°48'0 0.0
2017-Apr-19 11:23N 35°36' E 139°48'0 0.0
2017-Apr-19 10:53N 35°36' E 139°48'0 0.0
2017-Apr-19 10:30N 35°36' E 139°48'0 0.0
2017-Apr-19 10:00N 35°36' E 139°48'1 1.3
2017-Apr-19 09:30N 35°36' E 139°47'1 2.6
2017-Apr-19 09:00N 35°35' E 139°48'1 1.5
2017-Apr-19 08:30N 35°36' E 139°48'1 1.9
2017-Apr-19 08:00N 35°37' E 139°47'1 2.0
2017-Apr-19 07:30N 35°36' E 139°48'1 2.1
2017-Apr-19 07:00N 35°37' E 139°47'2 3.6
2017-Apr-19 06:30N 35°38' E 139°45'0 0.0
2017-Apr-19 06:00N 35°38' E 139°45'0 0.0
2017-Apr-19 05:30N 35°38' E 139°45'0 0.0
2017-Apr-19 05:00N 35°38' E 139°45'0 0.0
2017-Apr-19 04:30N 35°38' E 139°45'0 0.0
2017-Apr-19 04:00N 35°38' E 139°45'0 0.0
2017-Apr-19 03:30N 35°38' E 139°45'0 0.0
2017-Apr-19 03:00N 35°38' E 139°45'0 0.0
2017-Apr-19 02:30N 35°38' E 139°45'0 0.0
2017-Apr-19 02:00N 35°38' E 139°45'0 0.0
2017-Apr-19 01:30N 35°38' E 139°45'0 0.0
2017-Apr-19 01:00N 35°38' E 139°45'0 0.0
2017-Apr-19 00:30N 35°38' E 139°45'0 0.0
2017-Apr-19 00:00N 35°38' E 139°45'0 0.0
2017-Apr-18 23:30N 35°38' E 139°45'0 0.0
2017-Apr-18 23:00N 35°38' E 139°45'1 3.0
2017-Apr-18 22:30N 35°37' E 139°46'1 2.9
2017-Apr-18 22:00N 35°36' E 139°47'1 1.3
2017-Apr-18 21:30N 35°35' E 139°47'1 1.4
2017-Apr-18 20:54N 35°36' E 139°46'1 1.9
2017-Apr-18 20:30N 35°36' E 139°47'0 0.6
2017-Apr-18 20:00N 35°37' E 139°47'2 3.7
2017-Apr-18 19:30N 35°38' E 139°45'0 0.0
2017-Apr-18 19:00N 35°38' E 139°45'0 0.0
2017-Apr-18 18:30N 35°38' E 139°45'0 0.0
2017-Apr-18 18:00N 35°38' E 139°45'0 0.0
2017-Apr-18 17:30N 35°38' E 139°45'0 0.0
2017-Apr-18 17:00N 35°38' E 139°45'0 0.0
2017-Apr-18 16:30N 35°38' E 139°45'0 0.0
2017-Apr-18 16:00N 35°38' E 139°45'0 0.0
2017-Apr-18 15:30N 35°38' E 139°45'0 0.0
2017-Apr-18 15:00N 35°38' E 139°45'0 0.0
2017-Apr-18 14:30N 35°38' E 139°45'0 0.0
2017-Apr-18 13:30N 35°38' E 139°45'0 0.0
2017-Apr-18 13:00N 35°38' E 139°45'0 0.0
2017-Apr-18 12:30N 35°38' E 139°45'0 0.0
2017-Apr-18 12:00N 35°38' E 139°45'0 0.0
2017-Apr-18 11:30N 35°38' E 139°45'0 0.0
2017-Apr-18 11:00N 35°38' E 139°45'0 0.0
2017-Apr-18 10:30N 35°38' E 139°45'0 0.0
2017-Apr-18 10:00N 35°38' E 139°45'0 0.0
2017-Apr-18 09:30N 35°38' E 139°45'0 0.0
2017-Apr-18 09:00N 35°38' E 139°45'0 0.0
2017-Apr-18 08:30N 35°38' E 139°45'0 0.0
2017-Apr-18 08:00N 35°38' E 139°45'0 0.0
2017-Apr-18 07:30N 35°38' E 139°45'0 0.0
2017-Apr-18 07:00N 35°38' E 139°45'0 0.0
2017-Apr-18 06:30N 35°38' E 139°45'0 0.0
2017-Apr-18 06:00N 35°38' E 139°45'0 0.0
2017-Apr-18 05:30N 35°38' E 139°45'0 0.0
2017-Apr-18 05:00N 35°38' E 139°45'0 0.0
2017-Apr-18 04:29N 35°38' E 139°45'0 0.0
2017-Apr-18 04:00N 35°38' E 139°45'0 0.4
2017-Apr-18 03:30N 35°38' E 139°46'0 0.4
2017-Apr-18 03:00N 35°38' E 139°45'0 0.0
2017-Apr-18 02:30N 35°38' E 139°45'0 0.0
2017-Apr-18 02:00N 35°38' E 139°45'0 0.0
2017-Apr-18 01:30N 35°38' E 139°45'0 0.0
2017-Apr-18 01:00N 35°38' E 139°45'0 0.0
2017-Apr-18 00:30N 35°38' E 139°45'0 0.6
2017-Apr-18 00:00N 35°38' E 139°46'3 6.5
2017-Apr-17 23:30N 35°35' E 139°48'2 3.6
2017-Apr-17 23:00N 35°37' E 139°48'0 0.7
2017-Apr-17 22:30N 35°37' E 139°48'2 4.8
2017-Apr-17 22:00N 35°38' E 139°46'0 0.0
2017-Apr-17 21:30N 35°38' E 139°46'0 0.0
2017-Apr-17 21:00N 35°38' E 139°46'0 0.0
2017-Apr-17 20:30N 35°38' E 139°46'0 0.0
2017-Apr-17 20:00N 35°38' E 139°46'0 0.0
2017-Apr-17 19:30N 35°38' E 139°46'0 0.0
2017-Apr-17 19:00N 35°38' E 139°46'0 0.0
2017-Apr-17 18:30N 35°38' E 139°46'0 0.0
2017-Apr-17 18:00N 35°38' E 139°46'0 0.0
2017-Apr-17 17:30N 35°38' E 139°46'0 0.0
2017-Apr-17 17:00N 35°38' E 139°46'0 0.0
2017-Apr-17 16:30N 35°38' E 139°46'0 0.0
2017-Apr-17 16:00N 35°38' E 139°46'0 0.0
2017-Apr-17 15:30N 35°38' E 139°46'0 0.0
2017-Apr-17 15:00N 35°38' E 139°46'0 0.0
2017-Apr-17 14:30N 35°38' E 139°46'0 0.0
2017-Apr-17 13:30N 35°38' E 139°46'0 0.0
2017-Apr-17 13:00N 35°38' E 139°46'0 0.0
2017-Apr-17 12:30N 35°38' E 139°46'2 3.5
2017-Apr-17 12:00N 35°37' E 139°46'1 1.7
2017-Apr-17 11:30N 35°36' E 139°46'2 4.6
2017-Apr-17 11:00N 35°34' E 139°49'2 4.0
2017-Apr-17 10:30N 35°35' E 139°47'0 0.0
2017-Apr-17 10:00N 35°35' E 139°47'0 0.6
2017-Apr-17 09:30N 35°35' E 139°47'1 1.0
2017-Apr-17 09:00N 35°36' E 139°46'1 2.4
2017-Apr-17 08:30N 35°37' E 139°46'1 2.7
2017-Apr-17 08:00N 35°38' E 139°46'0 0.0
2017-Apr-17 07:30N 35°38' E 139°46'0 0.0
2017-Apr-17 07:00N 35°38' E 139°46'0 0.0
2017-Apr-17 06:30N 35°38' E 139°46'0 0.0
2017-Apr-17 06:00N 35°38' E 139°46'0 0.0
2017-Apr-17 05:30N 35°38' E 139°46'0 0.0
2017-Apr-17 05:00N 35°38' E 139°46'0 0.0
2017-Apr-17 04:30N 35°38' E 139°46'0 0.0
2017-Apr-17 03:59N 35°38' E 139°46'0 0.0
2017-Apr-17 02:15N 35°38' E 139°46'0 0.0
2017-Apr-17 02:00N 35°38' E 139°46'0 0.0
2017-Apr-17 01:30N 35°38' E 139°46'0 0.0
2017-Apr-17 00:57N 35°38' E 139°46'0 0.0
2017-Apr-17 00:30N 35°38' E 139°46'0 0.0
2017-Apr-17 00:00N 35°38' E 139°46'0 0.0
2017-Apr-16 23:30N 35°38' E 139°46'0 0.0
2017-Apr-16 23:00N 35°38' E 139°46'0 0.0
2017-Apr-16 22:30N 35°38' E 139°46'0 0.0
2017-Apr-16 22:00N 35°38' E 139°46'0 0.0
2017-Apr-16 21:30N 35°38' E 139°46'0 0.0
2017-Apr-16 21:00N 35°38' E 139°46'0 0.0
2017-Apr-16 20:30N 35°38' E 139°46'0 0.0
2017-Apr-16 20:00N 35°38' E 139°46'0 0.0
2017-Apr-16 19:30N 35°38' E 139°46'0 0.0
2017-Apr-16 19:00N 35°38' E 139°46'0 0.0
2017-Apr-16 18:30N 35°38' E 139°46'0 0.0
2017-Apr-16 18:00N 35°38' E 139°46'0 0.0
2017-Apr-16 17:30N 35°38' E 139°46'0 0.0
2017-Apr-16 17:00N 35°38' E 139°46'0 0.0
2017-Apr-16 16:30N 35°38' E 139°46'0 0.0
2017-Apr-16 16:00N 35°38' E 139°46'0 0.0
2017-Apr-16 15:30N 35°38' E 139°46'0 0.0
2017-Apr-16 15:00N 35°38' E 139°46'0 0.0
2017-Apr-16 14:30N 35°38' E 139°46'0 0.0
2017-Apr-16 13:30N 35°38' E 139°46'0 0.0
2017-Apr-16 13:00N 35°38' E 139°46'0 0.0
2017-Apr-16 12:30N 35°38' E 139°46'0 0.0
2017-Apr-16 12:00N 35°38' E 139°46'0 0.0
2017-Apr-16 11:30N 35°38' E 139°46'0 0.0
2017-Apr-16 11:00N 35°38' E 139°46'0 0.0
2017-Apr-16 10:30N 35°38' E 139°46'0 0.0
2017-Apr-16 10:00N 35°38' E 139°46'0 0.0
2017-Apr-16 09:30N 35°38' E 139°46'0 0.0
2017-Apr-16 09:00N 35°38' E 139°46'0 0.0
2017-Apr-16 08:30N 35°38' E 139°46'0 0.0
2017-Apr-16 08:00N 35°38' E 139°46'0 0.0
2017-Apr-16 07:30N 35°38' E 139°46'0 0.0
2017-Apr-16 07:00N 35°38' E 139°46'0 0.0
2017-Apr-16 06:30N 35°38' E 139°46'0 0.0
2017-Apr-16 06:00N 35°38' E 139°46'0 0.0
2017-Apr-16 05:30N 35°38' E 139°46'0 0.0
2017-Apr-16 05:00N 35°38' E 139°46'0 0.0
2017-Apr-16 04:30N 35°38' E 139°46'0 0.0
2017-Apr-16 04:00N 35°38' E 139°46'0 0.0
2017-Apr-16 03:30N 35°38' E 139°46'0 0.0
2017-Apr-16 03:00N 35°38' E 139°46'0 0.0
2017-Apr-16 02:30N 35°38' E 139°46'0 0.0
2017-Apr-16 02:00N 35°38' E 139°46'0 0.0
2017-Apr-16 01:30N 35°38' E 139°46'0 0.0
2017-Apr-16 01:00N 35°38' E 139°46'0 0.0
2017-Apr-16 00:30N 35°38' E 139°46'0 0.0
2017-Apr-16 00:00N 35°38' E 139°46'0 0.0
2017-Apr-15 23:30N 35°38' E 139°46'0 0.0
2017-Apr-15 23:00N 35°38' E 139°46'0 0.0
2017-Apr-15 22:30N 35°38' E 139°46'0 0.0
2017-Apr-15 22:00N 35°38' E 139°46'0 0.0
2017-Apr-15 21:30N 35°38' E 139°46'0 0.0
2017-Apr-15 21:00N 35°38' E 139°46'0 0.0
2017-Apr-15 20:30N 35°38' E 139°46'0 0.0
2017-Apr-15 20:00N 35°38' E 139°46'0 0.0
2017-Apr-15 19:30N 35°38' E 139°46'0 0.0
2017-Apr-15 19:00N 35°38' E 139°46'0 0.0
2017-Apr-15 18:30N 35°38' E 139°46'0 0.0
2017-Apr-15 18:00N 35°38' E 139°46'0 0.0
2017-Apr-15 17:30N 35°38' E 139°46'0 0.0
2017-Apr-15 17:00N 35°38' E 139°46'0 0.0
2017-Apr-15 16:30N 35°38' E 139°46'0 0.0
2017-Apr-15 16:00N 35°38' E 139°46'0 0.0
2017-Apr-15 15:30N 35°38' E 139°46'0 0.0
2017-Apr-15 15:00N 35°38' E 139°46'0 0.0
2017-Apr-15 14:30N 35°38' E 139°46'0 0.0
2017-Apr-15 13:30N 35°38' E 139°46'0 0.0
2017-Apr-15 13:00N 35°38' E 139°46'0 0.0
2017-Apr-15 12:30N 35°38' E 139°46'0 0.0
2017-Apr-15 12:00N 35°38' E 139°46'0 0.0
2017-Apr-15 11:30N 35°38' E 139°46'0 0.1
2017-Apr-15 11:00N 35°38' E 139°45'0 0.1
2017-Apr-15 10:30N 35°38' E 139°46'0 0.0
2017-Apr-15 10:00N 35°38' E 139°46'0 0.0
2017-Apr-15 09:30N 35°38' E 139°46'0 0.0
2017-Apr-15 09:00N 35°38' E 139°46'0 0.0
2017-Apr-15 08:30N 35°38' E 139°46'0 0.0
2017-Apr-15 08:00N 35°38' E 139°46'0 0.0
2017-Apr-15 07:30N 35°38' E 139°46'0 0.0
2017-Apr-15 07:00N 35°38' E 139°46'0 0.0
2017-Apr-15 06:30N 35°38' E 139°46'0 0.0
2017-Apr-15 06:00N 35°38' E 139°46'0 0.0
2017-Apr-15 05:30N 35°38' E 139°46'0 0.0
2017-Apr-15 05:00N 35°38' E 139°46'0 0.0
2017-Apr-15 04:30N 35°38' E 139°46'0 0.0
2017-Apr-15 04:00N 35°38' E 139°46'0 0.0
2017-Apr-15 03:30N 35°38' E 139°46'0 0.0
2017-Apr-15 03:00N 35°38' E 139°46'0 0.0
2017-Apr-15 02:30N 35°38' E 139°46'0 0.0
2017-Apr-15 02:00N 35°38' E 139°46'0 0.0
2017-Apr-15 01:30N 35°38' E 139°46'0 0.0
2017-Apr-15 01:00N 35°38' E 139°46'0 0.0
2017-Apr-15 00:30N 35°38' E 139°46'0 0.0
2017-Apr-15 00:00N 35°38' E 139°46'0 0.0
2017-Apr-14 23:30N 35°38' E 139°46'1 1.6
2017-Apr-14 23:00N 35°37' E 139°46'2 3.1
2017-Apr-14 22:31N 35°36' E 139°46'2 4.7
2017-Apr-14 22:00N 35°38' E 139°45'0 0.0
2017-Apr-14 21:30N 35°38' E 139°45'0 0.0
2017-Apr-14 21:00N 35°38' E 139°45'0 0.0
2017-Apr-14 20:30N 35°38' E 139°45'0 0.0
2017-Apr-14 20:00N 35°38' E 139°45'0 0.0
2017-Apr-14 19:30N 35°38' E 139°45'0 0.0
2017-Apr-14 19:00N 35°38' E 139°45'0 0.0
2017-Apr-14 18:30N 35°38' E 139°45'0 0.0
2017-Apr-14 18:00N 35°38' E 139°45'0 0.0
2017-Apr-14 17:30N 35°38' E 139°45'  

Dump ship's entire track history